ADDS TAF Board (Experimental) INFO Settings
IDs: Format: Expanded Condensed

KLGA - New York/La Guardia, NY, US

Issued at 1933 UTC 03 Sep 2015
Updated at: 2124 UTC 03 Sep 2015
Time2051Z 03/22Z 03/23Z 04/00Z 04/01Z 04/02Z 04/03Z 04/04Z 04/05Z 04/06Z 04/07Z 04/08Z 04/09Z 04/10Z
Type OBS PRVL PRVL PRVL PRVL PRVL PRVL PRVL PRVL PRVL PRVL PRVL PRVL PRVL
VIS 10 >6 >6 >6 >6 >6 >6 >6 >6 >6 >6 >6 >6 >6
CIG 250 -- -- -- -- 250 250 250 250 250 250 250 250 250
Cover BKN FEW SCT SCT SCT BKN BKN BKN BKN BKN BKN BKN BKN BKN
FltCat VFR VFR VFR VFR VFR VFR VFR VFR VFR VFR VFR VFR VFR VFR
WX -- -- -- -- -- -- -- -- -- -- -- -- -- --
WDir 50 50 170 170 170 VRB VRB VRB VRB VRB VRB VRB VRB VRB
WSpd 7 7 8 8 8 4 4 4 4 4 4 4 4 4
WGst -- -- -- -- -- -- -- -- -- -- -- -- -- --
R04/22
XWnd -2 -2 -5 -5 -5 VRB VRB VRB VRB VRB VRB VRB VRB VRB
HWnd 7 7 -6 -6 -6 VRB VRB VRB VRB VRB VRB VRB VRB VRB
R13/31
XWnd 7 7 -6 -6 -6 VRB VRB VRB VRB VRB VRB VRB VRB VRB
HWnd 2 2 5 5 5 VRB VRB VRB VRB VRB VRB VRB VRB VRB

NOTE: TEMPO conditions in [brackets]. Keep in mind TEMPO conditions might be better (lower impact) than prevailing conditions.

Raw TAF
KLGA 031933Z 0320/0418 05007KT P6SM FEW250
  FM032300 17008KT P6SM SCT250
  FM040200 VRB04KT P6SM BKN250
  FM041100 05008KT P6SM BKN025
  FM041500 05013G20KT P6SM BKN030


Raw METAR
KLGA 032051Z 05007KT 10SM FEW070 BKN250 33/13 A2981 RMK AO2 SLP096 T03330133 56008 $
KLGA 031951Z 05005KT 10SM FEW065 BKN250 33/16 A2982 RMK AO2 SLP098 T03280161 $
KLGA 031851Z 00000KT 10SM FEW065 BKN250 32/18 A2983 RMK AO2 SLP101 T03220178 $

METAR Board
Radar Display
Forecast Discussion

TAF Board Legend

Potential Impact
Threat None Slight Moderate High
Visibility (sm) ≥5.1 5.1>X≥3 3>X≥1 <1
Ceiling (100 ft) ≥30.1 30.1>X≥10 10>X≥5 <5
Wind Speed (kt) <10 10≤X<20 20≤X<30 ≥30
Wind Gust (kt) <15 15≤X<25 25≤X<35 ≥35
Weather No Wx Reported VCTS,-TS,-FZRA,SN TS,FZRA +TS,+FZRA,+SN